Time;durP1;ratioP1;P1;durP2;ratioP2;P2;SDS_P1;SDS_P2;PMS_P1;PMS_P2;Temp;Humidity;BMP_temperature;BMP_pressure;BME280_temperature;BME280_humidity;BME280_pressure;Samples;Min_cycle;Max_cycle;Signal;HPM_P1;HPM_P2
2022/09/24 00:01:30;;;;;;;24.10;14.58;;;;;;;3.85;72.59;97347.14;1704542;84;28527;-75
2022/09/24 00:04:03;;;;;;;22.85;14.80;;;;;;;3.81;72.67;97347.14;1674638;85;25781;-75
2022/09/24 00:06:37;;;;;;;23.65;15.00;;;;;;;3.83;72.82;97346.98;1704368;84;25803;-75
2022/09/24 00:09:04;;;;;;;25.25;15.03;;;;;;;3.82;72.82;97346.14;1701337;84;26339;-76
2022/09/24 00:11:31;;;;;;;23.57;14.58;;;;;;;3.80;72.75;97348.14;1701080;84;25811;-74
2022/09/24 00:13:59;;;;;;;18.67;12.50;;;;;;;3.78;72.86;97343.97;1701243;84;27483;-74
2022/09/24 00:16:30;;;;;;;17.77;11.70;;;;;;;3.76;72.76;97347.30;1701365;84;25752;-74
2022/09/24 00:18:59;;;;;;;20.75;13.05;;;;;;;3.72;72.73;97344.16;1701360;84;26115;-75
2022/09/24 00:21:34;;;;;;;19.35;11.93;;;;;;;3.70;72.78;97343.50;1701271;84;25717;-74
2022/09/24 00:26:48;;;;;;;19.62;12.03;;;;;;;3.68;72.87;97342.83;1701514;84;25748;-75
2022/09/24 00:26:49;;;;;;;17.65;12.25;;;;;;;3.66;73.02;97344.83;1698127;84;27470;-76
2022/09/24 00:29:22;;;;;;;14.10;11.25;;;;;;;3.62;73.06;97342.98;1701239;84;25738;-76
2022/09/24 00:31:50;;;;;;;14.83;11.12;;;;;;;3.62;73.07;97329.64;1701745;84;25749;-74
2022/09/24 00:34:18;;;;;;;21.87;12.93;;;;;;;3.60;72.99;97330.84;1701363;84;26190;-75
2022/09/24 00:36:46;;;;;;;15.45;11.50;;;;;;;3.58;73.07;97325.67;1701226;84;25954;-75
2022/09/24 00:39:13;;;;;;;18.27;12.13;;;;;;;3.55;73.15;97321.16;1705190;83;28176;-76
2022/09/24 00:41:44;;;;;;;18.60;12.70;;;;;;;3.49;73.18;97317.35;1729872;81;26091;-75
2022/09/24 00:44:44;;;;;;;17.32;12.03;;;;;;;3.46;73.30;97323.52;1730316;81;25754;-76
2022/09/24 00:47:28;;;;;;;18.90;11.95;;;;;;;3.46;73.43;97319.52;1727891;83;26044;-75
2022/09/24 00:50:27;;;;;;;16.60;11.65;;;;;;;3.43;73.45;97323.84;1672026;85;25823;-76
2022/09/24 00:52:59;;;;;;;16.87;10.88;;;;;;;3.40;73.49;97323.67;1623475;88;27494;-74
2022/09/24 00:55:26;;;;;;;18.90;10.95;;;;;;;3.40;73.49;97320.17;1597823;89;26027;-77
2022/09/24 00:57:59;;;;;;;16.57;9.78;;;;;;;3.37;73.45;97318.70;1597954;89;25979;-75
2022/09/24 01:00:26;;;;;;;13.58;10.15;;;;;;;3.36;73.49;97320.20;1597927;89;25836;-76
2022/09/24 01:03:10;;;;;;;16.15;11.00;;;;;;;3.34;73.50;97319.53;1598085;89;25834;-75
2022/09/24 01:05:38;;;;;;;14.93;10.63;;;;;;;3.32;73.53;97320.19;1560003;91;28307;-75
2022/09/24 01:08:13;;;;;;;12.43;9.63;;;;;;;3.29;73.57;97317.85;1542395;92;25981;-75
2022/09/24 01:11:08;;;;;;;15.72;9.93;;;;;;;3.27;73.63;97311.34;1525865;93;26080;-75
2022/09/24 01:14:07;;;;;;;13.60;10.00;;;;;;;3.27;73.68;97308.68;1542797;92;25855;-76
2022/09/24 01:17:03;;;;;;;13.88;9.48;;;;;;;3.25;73.74;97303.54;1526194;93;25870;-75
2022/09/24 01:20:00;;;;;;;17.52;9.73;;;;;;;3.23;73.77;97305.53;1542721;92;27498;-74
2022/09/24 01:23:05;;;;;;;17.27;11.83;;;;;;;3.19;73.86;97303.36;1549815;91;25781;-75
2022/09/24 01:26:02;;;;;;;17.87;12.18;;;;;;;3.11;74.22;97301.55;1549252;92;25851;-76
2022/09/24 01:28:47;;;;;;;17.35;12.25;;;;;;;3.02;74.45;97309.72;1548961;92;25782;-75
2022/09/24 01:31:28;;;;;;;16.12;11.73;;;;;;;2.97;74.83;97307.53;1595290;89;25952;-74
2022/09/24 01:33:58;;;;;;;20.08;12.03;;;;;;;2.96;75.01;97299.20;1586805;90;28251;-75
2022/09/24 01:36:27;;;;;;;20.37;13.48;;;;;;;3.04;75.04;97305.02;1570970;91;25940;-74
2022/09/24 01:38:57;;;;;;;20.05;13.55;;;;;;;3.06;75.04;97299.86;1597228;89;25900;-74
2022/09/24 01:41:24;;;;;;;18.20;12.07;;;;;;;3.11;75.04;97301.55;1582987;89;25961;-74
2022/09/24 01:43:51;;;;;;;17.05;12.40;;;;;;;3.15;75.12;97302.02;1554873;92;25790;-76
2022/09/24 01:46:20;;;;;;;15.63;11.20;;;;;;;3.18;75.16;97307.86;1591053;88;27632;-75
2022/09/24 01:48:47;;;;;;;16.35;11.85;;;;;;;3.20;75.22;97309.86;1644118;87;25731;-74
2022/09/24 01:51:28;;;;;;;14.78;10.93;;;;;;;3.24;75.24;97307.20;1645725;84;25759;-74
2022/09/24 01:54:02;;;;;;;15.70;10.30;;;;;;;3.26;75.29;97303.84;1688331;84;25782;-74
2022/09/24 01:56:52;;;;;;;14.38;11.22;;;;;;;3.28;75.21;97307.68;1699519;84;25727;-74
2022/09/24 01:59:32;;;;;;;16.12;10.00;;;;;;;3.31;75.21;97303.84;1714199;83;28161;-75
2022/09/24 02:02:04;;;;;;;18.02;11.10;;;;;;;3.31;75.13;97307.85;1644166;86;26116;-74
2022/09/24 02:04:36;;;;;;;16.20;11.40;;;;;;;3.32;75.14;97304.19;1658731;86;25760;-75
2022/09/24 02:07:10;;;;;;;17.25;11.33;;;;;;;3.33;75.22;97300.52;1661512;86;30603;-75
2022/09/24 02:09:40;;;;;;;16.37;11.08;;;;;;;3.33;75.30;97304.02;1661352;86;26669;-74
2022/09/24 02:12:13;;;;;;;16.45;11.40;;;;;;;3.34;75.30;97300.86;1661465;86;27453;-75
2022/09/24 02:14:51;;;;;;;20.80;11.03;;;;;;;3.33;75.23;97302.69;1661289;86;25748;-74
2022/09/24 02:17:18;;;;;;;19.60;10.90;;;;;;;3.32;75.20;97298.85;1661533;86;25839;-74
2022/09/24 02:19:47;;;;;;;17.60;10.85;;;;;;;3.31;75.29;97298.52;1661429;86;26161;-75
2022/09/24 02:22:14;;;;;;;16.17;10.85;;;;;;;3.32;75.37;97300.19;1661547;86;25780;-74
2022/09/24 02:24:48;;;;;;;16.05;11.28;;;;;;;3.28;75.45;97302.84;1661276;86;27541;-74
2022/09/24 02:27:16;;;;;;;18.27;11.00;;;;;;;3.25;75.50;97300.88;1616039;88;25901;-74
2022/09/24 02:29:43;;;;;;;16.90;11.28;;;;;;;3.25;75.52;97294.70;1616295;88;25861;-74
2022/09/24 02:32:14;;;;;;;16.07;10.53;;;;;;;3.24;75.43;97292.53;1616213;88;26398;-74
2022/09/24 02:34:46;;;;;;;14.47;10.48;;;;;;;3.23;75.39;97289.53;1616182;88;25837;-74
2022/09/24 02:37:15;;;;;;;15.88;11.08;;;;;;;3.21;75.38;97288.86;1616132;88;28093;-75
2022/09/24 02:39:42;;;;;;;14.38;9.93;;;;;;;3.12;75.37;97284.55;1616098;88;25869;-76
2022/09/24 02:42:12;;;;;;;15.20;10.72;;;;;;;3.04;75.35;97285.02;1621654;87;25842;-74
2022/09/24 02:44:39;;;;;;;13.72;9.83;;;;;;;3.02;75.47;97286.52;1621153;87;26221;-73
2022/09/24 02:47:06;;;;;;;13.62;9.83;;;;;;;2.98;75.48;97287.04;1613031;88;25709;-74
2022/09/24 02:49:33;;;;;;;15.68;10.65;;;;;;;2.99;75.50;97280.21;1622940;88;27662;-74
2022/09/24 02:52:00;;;;;;;13.93;10.15;;;;;;;2.99;75.50;97278.88;1595636;89;25750;-76
2022/09/24 02:54:27;;;;;;;17.45;10.55;;;;;;;2.98;75.53;97275.88;1611781;88;25736;-76
2022/09/24 02:56:54;;;;;;;15.13;10.55;;;;;;;3.01;75.47;97271.55;1587911;90;25843;-75
2022/09/24 02:59:20;;;;;;;15.75;10.05;;;;;;;3.02;75.40;97275.85;1623947;87;25919;-76
2022/09/24 03:01:47;;;;;;;14.20;10.05;;;;;;;3.01;75.30;97274.71;1635850;87;28071;-75
2022/09/24 03:04:15;;;;;;;12.73;9.63;;;;;;;2.99;75.24;97266.88;1680897;82;25795;-76
2022/09/24 03:06:42;;;;;;;13.80;9.83;;;;;;;2.97;75.21;97270.20;1760287;81;25704;-74
2022/09/24 03:09:11;;;;;;;14.73;9.98;;;;;;;2.94;75.18;97273.20;1733430;82;25677;-75
2022/09/24 03:11:38;;;;;;;12.07;9.33;;;;;;;2.93;75.19;97268.86;1741731;81;25765;-74
2022/09/24 03:14:05;;;;;;;12.53;9.25;;;;;;;2.92;75.19;97266.36;1741907;82;27350;-74
2022/09/24 03:16:32;;;;;;;15.55;8.95;;;;;;;2.90;75.17;97267.86;1741920;82;25721;-74
2022/09/24 03:18:59;;;;;;;11.53;9.20;;;;;;;2.91;75.25;97264.19;1741904;81;25714;-76
2022/09/24 03:21:26;;;;;;;13.80;9.95;;;;;;;2.90;75.24;97263.86;1741619;82;25697;-75
2022/09/24 03:23:53;;;;;;;15.75;9.88;;;;;;;2.89;75.33;97260.39;1741968;81;25802;-75
2022/09/24 03:26:19;;;;;;;11.35;9.80;;;;;;;2.92;75.38;97260.53;1741907;81;28134;-74
2022/09/24 03:28:46;;;;;;;14.23;10.15;;;;;;;2.93;75.43;97268.86;1741850;81;25813;-74
2022/09/24 03:31:13;;;;;;;13.48;11.03;;;;;;;2.94;75.56;97264.36;1741647;82;25703;-75
2022/09/24 03:33:43;;;;;;;13.95;10.35;;;;;;;2.95;75.59;97269.53;1741815;82;25662;-76
2022/09/24 03:36:15;;;;;;;16.77;11.05;;;;;;;2.98;75.59;97264.37;1741873;82;25800;-74
2022/09/24 03:38:44;;;;;;;14.23;10.63;;;;;;;3.00;75.55;97265.88;1742296;81;27373;-74
2022/09/24 03:41:12;;;;;;;24.95;22.22;;;;;;;2.91;75.58;97260.19;1746025;81;25773;-75
2022/09/24 03:43:39;;;;;;;19.10;16.40;;;;;;;2.81;75.55;97256.86;1755016;81;25735;-74
2022/09/24 03:46:08;;;;;;;13.38;10.30;;;;;;;2.81;75.72;97259.03;1754917;81;25698;-75
2022/09/24 03:48:37;;;;;;;16.87;10.15;;;;;;;2.83;75.87;97253.54;1755170;81;25701;-76
2022/09/24 03:51:07;;;;;;;11.97;9.98;;;;;;;2.78;75.90;97261.19;1755255;81;28202;-75
2022/09/24 03:53:34;;;;;;;11.90;9.15;;;;;;;2.68;75.91;97261.86;1755160;81;25756;-75
2022/09/24 03:58:34;;;;;;;11.10;9.73;;;;;;;2.60;76.25;97264.52;1648601;86;25788;-75
2022/09/24 04:01:00;;;;;;;15.05;13.45;;;;;;;2.59;76.37;97262.85;1648753;86;25980;-73
2022/09/24 04:03:26;;;;;;;12.95;11.03;;;;;;;2.57;76.54;97259.02;1648860;86;28175;-74
2022/09/24 04:05:53;;;;;;;17.23;11.45;;;;;;;2.54;76.66;97258.84;1648922;86;25932;-73
2022/09/24 04:08:21;;;;;;;19.42;11.93;;;;;;;2.51;76.77;97256.53;1648611;87;25754;-75
2022/09/24 04:10:49;;;;;;;15.30;12.98;;;;;;;2.53;76.92;97258.53;1648626;87;26617;-74
2022/09/24 04:13:17;;;;;;;16.07;12.10;;;;;;;2.58;76.97;97255.85;1648916;86;25716;-75
2022/09/24 04:15:44;;;;;;;18.23;12.78;;;;;;;2.63;76.96;97257.54;1648697;87;27450;-75
2022/09/24 04:18:11;;;;;;;18.27;13.32;;;;;;;2.69;76.99;97263.52;1648842;86;25794;-74
2022/09/24 04:20:37;;;;;;;18.32;12.33;;;;;;;2.72;76.97;97258.70;1649032;86;25814;-74
2022/09/24 04:23:04;;;;;;;18.60;11.68;;;;;;;2.74;76.99;97255.88;1648890;86;25898;-74
2022/09/24 04:25:32;;;;;;;14.30;10.65;;;;;;;2.78;76.96;97256.69;1648749;87;25690;-74
2022/09/24 04:28:07;;;;;;;14.38;10.65;;;;;;;2.78;76.92;97259.36;1649039;86;28154;-74
2022/09/24 04:30:35;;;;;;;14.30;10.80;;;;;;;2.80;76.83;97255.20;1648825;86;25935;-76
2022/09/24 04:33:02;;;;;;;13.72;10.30;;;;;;;2.81;76.76;97255.53;1648704;87;25292;-75
2022/09/24 04:35:31;;;;;;;13.45;10.03;;;;;;;2.81;76.79;97258.20;1648639;87;25809;-74
2022/09/24 04:37:59;;;;;;;14.38;10.80;;;;;;;2.84;76.83;97249.37;1648815;86;25837;-74
2022/09/24 04:40:26;;;;;;;14.93;10.90;;;;;;;2.90;76.87;97247.86;1648882;86;28455;-75
2022/09/24 04:42:53;;;;;;;15.53;11.75;;;;;;;2.96;76.87;97251.20;1656380;86;25856;-74
2022/09/24 04:45:23;;;;;;;17.23;13.35;;;;;;;3.00;76.90;97247.21;1656904;86;25894;-74
2022/09/24 04:47:57;;;;;;;19.10;13.93;;;;;;;3.01;76.93;97246.22;1657209;86;25745;-76
2022/09/24 04:50:27;;;;;;;18.60;12.98;;;;;;;2.96;76.91;97249.87;1657282;86;25820;-73
2022/09/24 04:52:55;;;;;;;18.65;12.85;;;;;;;3.00;76.93;97251.71;1657393;86;27522;-74
2022/09/24 04:55:23;;;;;;;17.52;13.00;;;;;;;3.02;76.97;97251.85;1697714;82;25725;-73
2022/09/24 04:57:50;;;;;;;15.15;11.50;;;;;;;3.07;77.01;97245.53;1738440;82;25761;-76
2022/09/24 05:00:20;;;;;;;13.60;11.63;;;;;;;3.10;76.95;97243.87;1738389;82;26128;-74
2022/09/24 05:02:49;;;;;;;14.43;11.80;;;;;;;3.11;76.98;97244.20;1738420;82;25753;-76
2022/09/24 05:05:16;;;;;;;17.20;12.70;;;;;;;3.14;77.00;97242.50;1735615;82;27365;-76
2022/09/24 05:07:43;;;;;;;16.35;12.00;;;;;;;3.16;76.99;97245.01;1738447;82;25725;-75
2022/09/24 05:10:10;;;;;;;18.65;14.43;;;;;;;3.15;77.07;97240.67;1738434;82;25704;-76
2022/09/24 05:12:36;;;;;;;21.82;15.65;;;;;;;3.10;77.05;97240.36;1738428;82;25710;-75
2022/09/24 05:15:04;;;;;;;20.02;14.98;;;;;;;3.10;77.23;97237.20;1719007;82;25770;-75
2022/09/24 05:17:31;;;;;;;18.62;14.60;;;;;;;3.12;77.22;97238.37;1738235;82;27434;-76
2022/09/24 05:20:00;;;;;;;19.48;14.85;;;;;;;3.16;77.29;97237.00;1738306;82;26010;-76
2022/09/24 05:22:26;;;;;;;19.77;14.73;;;;;;;3.19;77.25;97233.51;1738298;82;25788;-74
2022/09/24 05:24:53;;;;;;;22.42;14.73;;;;;;;3.24;77.29;97229.84;1738182;82;25803;-75
2022/09/24 05:27:21;;;;;;;18.25;14.65;;;;;;;3.28;77.46;97230.81;1738526;82;25682;-74
2022/09/24 05:29:49;;;;;;;23.27;15.48;;;;;;;3.31;77.51;97226.48;1738509;82;28040;-74
2022/09/24 05:32:18;;;;;;;21.93;15.55;;;;;;;3.33;77.64;97221.81;1748017;81;25665;-75
2022/09/24 05:34:46;;;;;;;19.62;14.35;;;;;;;3.36;77.75;97225.48;1768898;80;25708;-75
2022/09/24 05:37:14;;;;;;;23.62;13.50;;;;;;;3.39;77.91;97222.45;1769114;81;25776;-76
2022/09/24 05:39:41;;;;;;;19.23;14.30;;;;;;;3.45;78.08;97221.28;1769128;80;25387;-76
2022/09/24 05:42:12;;;;;;;20.80;14.63;;;;;;;3.52;78.07;97225.42;1777020;80;28135;-75
2022/09/24 05:44:38;;;;;;;22.77;15.08;;;;;;;3.60;78.19;97222.24;1786126;80;25845;-75
2022/09/24 05:47:05;;;;;;;22.85;16.70;;;;;;;3.68;78.20;97225.38;1786036;80;25700;-76
2022/09/24 05:49:32;;;;;;;27.70;19.20;;;;;;;3.74;78.20;97223.36;1786349;80;26457;-74
2022/09/24 05:51:58;;;;;;;27.73;19.92;;;;;;;3.82;78.44;97220.65;1786473;80;25775;-75
2022/09/24 05:54:25;;;;;;;27.98;18.80;;;;;;;3.90;78.40;97223.27;1786199;80;28004;-76
2022/09/24 05:56:52;;;;;;;25.20;18.70;;;;;;;3.98;78.47;97225.89;1786226;80;25982;-74
2022/09/24 05:59:19;;;;;;;23.20;15.80;;;;;;;4.06;78.57;97229.55;1786330;80;25922;-74
2022/09/24 06:01:45;;;;;;;18.00;15.43;;;;;;;4.13;78.56;97228.66;1786391;80;26363;-76
2022/09/24 06:04:12;;;;;;;22.48;16.35;;;;;;;4.21;78.59;97233.14;1786497;80;25669;-76
2022/09/24 06:06:39;;;;;;;23.75;15.85;;;;;;;4.29;78.64;97230.42;1786423;80;28210;-75
2022/09/24 06:09:07;;;;;;;18.75;14.73;;;;;;;4.38;78.74;97225.84;1786187;80;25887;-75
2022/09/24 06:11:34;;;;;;;21.15;14.15;;;;;;;4.48;78.76;97232.63;1761575;80;25698;-74
2022/09/24 06:14:04;;;;;;;25.82;14.60;;;;;;;4.60;78.87;97231.70;1755773;80;25679;-75
2022/09/24 06:16:33;;;;;;;23.87;13.08;;;;;;;4.71;79.08;97229.44;1755129;80;25852;-74
2022/09/24 06:19:00;;;;;;;20.68;13.13;;;;;;;4.84;79.16;97229.34;1760601;80;27646;-76
2022/09/24 06:21:27;;;;;;;18.12;13.65;;;;;;;4.97;79.21;97230.41;1783827;80;26463;-75
2022/09/24 06:23:54;;;;;;;17.52;13.22;;;;;;;5.10;79.33;97229.80;1764455;80;25764;-74
2022/09/24 06:26:21;;;;;;;16.75;12.50;;;;;;;5.25;79.54;97225.81;1786120;80;26032;-74
2022/09/24 06:28:48;;;;;;;22.67;13.90;;;;;;;5.39;79.66;97221.82;1786121;80;26469;-75
2022/09/24 06:31:14;;;;;;;24.80;13.65;;;;;;;5.55;79.76;97220.00;1774393;80;27414;-74
2022/09/24 06:33:41;;;;;;;20.43;13.62;;;;;;;5.67;79.63;97222.53;1755356;80;25754;-76
2022/09/24 06:36:09;;;;;;;20.97;14.10;;;;;;;5.80;79.69;97228.05;1755470;80;25673;-74
2022/09/24 06:38:38;;;;;;;18.37;14.00;;;;;;;5.94;79.78;97227.23;1755440;80;25782;-74
2022/09/24 06:41:05;;;;;;;18.90;12.85;;;;;;;6.06;79.64;97229.76;1755155;80;25670;-73
2022/09/24 06:43:33;;;;;;;18.02;13.15;;;;;;;6.20;79.66;97228.58;1739257;81;28273;-74
2022/09/24 06:46:00;;;;;;;17.27;13.15;;;;;;;6.32;79.64;97227.91;1738251;82;25722;-75
2022/09/24 06:48:30;;;;;;;17.60;12.73;;;;;;;6.45;79.66;97229.91;1738188;81;25700;-74
2022/09/24 06:50:56;;;;;;;16.10;11.88;;;;;;;6.58;79.77;97228.71;1738269;82;26441;-74
2022/09/24 06:53:23;;;;;;;18.73;12.73;;;;;;;6.69;79.62;97224.18;1738484;81;26001;-73
2022/09/24 06:55:50;;;;;;;16.52;12.13;;;;;;;6.80;79.55;97220.98;1738124;81;27411;-74
2022/09/24 06:58:19;;;;;;;20.50;12.85;;;;;;;6.92;79.50;97220.47;1738347;82;25370;-74
2022/09/24 07:01:00;;;;;;;19.70;11.88;;;;;;;7.04;79.61;97217.58;1738196;82;25761;-73
2022/09/24 07:03:29;;;;;;;17.37;12.60;;;;;;;7.17;79.57;97217.69;1738286;82;25392;-76
2022/09/24 07:06:03;;;;;;;18.60;14.53;;;;;;;7.30;79.50;97215.11;1738310;82;25703;-74
2022/09/24 07:08:31;;;;;;;22.90;17.65;;;;;;;7.42;79.55;97231.00;1738407;81;28052;-75
2022/09/24 07:10:59;;;;;;;16.52;12.98;;;;;;;7.53;79.54;97221.56;1738063;82;25868;-74
2022/09/24 07:13:26;;;;;;;19.90;12.05;;;;;;;7.66;79.52;97222.17;1738459;81;25710;-75
2022/09/24 07:15:52;;;;;;;14.43;11.10;;;;;;;7.80;79.59;97229.28;1738407;82;25773;-74
2022/09/24 07:18:20;;;;;;;13.70;10.18;;;;;;;7.93;79.50;97230.70;1738131;82;25773;-75
2022/09/24 07:20:54;;;;;;;14.10;8.95;;;;;;;8.05;79.11;97226.94;1738023;82;27407;-76
2022/09/24 07:23:22;;;;;;;10.18;8.75;;;;;;;8.17;78.76;97226.17;1738366;82;25766;-74
2022/09/24 07:25:50;;;;;;;11.83;8.45;;;;;;;8.32;78.54;97229.26;1738361;81;25713;-74
2022/09/24 07:28:18;;;;;;;11.63;8.73;;;;;;;8.46;78.35;97229.59;1738177;81;25716;-74
2022/09/24 07:30:45;;;;;;;12.00;8.23;;;;;;;8.61;78.10;97226.23;1738402;82;25667;-76
2022/09/24 07:33:11;;;;;;;12.47;8.88;;;;;;;8.76;78.05;97230.09;1738257;82;28147;-74
2022/09/24 07:35:39;;;;;;;11.65;8.53;;;;;;;8.92;77.91;97227.03;1738046;81;25639;-76
2022/09/24 07:40:38;;;;;;;9.73;8.00;;;;;;;9.19;77.48;97225.16;1650387;86;25544;-74
2022/09/24 07:43:11;;;;;;;11.75;7.20;;;;;;;9.33;77.33;97222.78;1649660;86;25730;-75
2022/09/24 07:45:34;;;;;;;11.95;7.92;;;;;;;9.47;76.81;97235.73;1645929;86;27467;-75
2022/09/24 07:48:03;;;;;;;11.12;8.28;;;;;;;9.54;76.26;97240.07;1649007;86;25785;-76
2022/09/24 07:50:34;;;;;;;9.70;7.62;;;;;;;9.61;76.07;97236.03;1649307;86;25809;-75
2022/09/24 07:53:02;;;;;;;9.63;7.78;;;;;;;9.66;75.94;97231.66;1649481;86;25577;-75
2022/09/24 07:55:28;;;;;;;12.88;8.00;;;;;;;9.72;76.02;97237.58;1649068;86;25774;-75
2022/09/24 07:57:56;;;;;;;11.75;8.13;;;;;;;9.80;75.80;97234.33;1649512;86;27064;-74
2022/09/24 08:00:24;;;;;;;11.88;8.40;;;;;;;9.86;75.79;97237.55;1648994;86;26681;-75
2022/09/24 08:02:52;;;;;;;11.53;8.18;;;;;;;9.95;75.81;97238.97;1649167;86;25823;-73
2022/09/24 08:05:20;;;;;;;10.40;8.60;;;;;;;10.03;75.83;97238.73;1649271;86;25807;-75
2022/09/24 08:07:56;;;;;;;14.00;9.18;;;;;;;10.09;75.73;97233.86;1649145;86;26884;-75
2022/09/24 08:10:25;;;;;;;12.45;8.63;;;;;;;10.18;75.59;97233.95;1619544;88;27504;-74
2022/09/24 08:12:52;;;;;;;12.23;8.03;;;;;;;10.25;75.35;97230.73;1619497;88;25946;-75
2022/09/24 08:15:21;;;;;;;8.88;7.00;;;;;;;10.31;75.20;97228.52;1618617;88;25848;-74
2022/09/24 08:17:48;;;;;;;8.68;6.75;;;;;;;10.39;75.17;97236.88;1619745;88;26243;-74
2022/09/24 08:20:15;;;;;;;8.95;7.03;;;;;;;10.48;74.86;97236.13;1619856;88;25246;-75
2022/09/24 08:22:41;;;;;;;11.22;7.53;;;;;;;10.57;74.79;97232.13;1619687;88;27385;-73
2022/09/24 08:25:08;;;;;;;12.00;8.18;;;;;;;10.67;74.84;97227.92;1619553;88;26577;-75
2022/09/24 08:27:36;;;;;;;12.85;8.13;;;;;;;10.75;74.60;97230.36;1619406;88;25359;-75
2022/09/24 08:30:05;;;;;;;10.45;7.40;;;;;;;10.83;74.39;97229.30;1619835;88;25760;-75
2022/09/24 08:32:32;;;;;;;9.78;7.40;;;;;;;10.90;74.35;97226.53;1619493;88;26500;-75
2022/09/24 08:34:59;;;;;;;8.45;7.00;;;;;;;10.97;73.99;97222.77;1619808;88;28241;-75
2022/09/24 08:37:27;;;;;;;10.53;7.35;;;;;;;11.04;73.85;97228.94;1627004;87;25789;-75
2022/09/24 08:39:54;;;;;;;8.55;7.17;;;;;;;11.13;73.83;97228.97;1619497;88;25828;-75
2022/09/24 08:42:54;;;;;;;7.33;6.30;;;;;;;11.24;73.51;97222.03;1623046;87;25815;-75
2022/09/24 08:48:12;;;;;;;7.85;6.50;;;;;;;11.50;73.20;97214.23;1537372;93;27710;-75
2022/09/24 08:51:00;;;;;;;7.25;5.47;;;;;;;11.64;72.88;97206.30;1489510;94;26365;-74
2022/09/24 08:53:59;;;;;;;7.20;5.85;;;;;;;11.74;72.30;97207.96;1503815;93;25908;-75
2022/09/24 08:56:29;;;;;;;7.47;5.55;;;;;;;11.90;72.33;97211.48;1432907;100;25978;-75
2022/09/24 08:59:25;;;;;;;6.15;5.55;;;;;;;12.09;71.86;97211.47;1433148;100;25563;-73
2022/09/24 09:02:47;;;;;;;7.92;5.75;;;;;;;12.22;71.37;97211.32;1433690;99;28347;-75
2022/09/24 09:05:50;;;;;;;5.95;5.10;;;;;;;12.40;71.37;97211.84;1432999;100;25838;-75
2022/09/24 09:08:51;;;;;;;6.97;5.40;;;;;;;12.62;71.31;97210.30;1444051;99;25953;-75
2022/09/24 09:11:23;;;;;;;8.25;5.15;;;;;;;12.81;70.58;97209.71;1459105;98;25937;-75
2022/09/24 09:13:56;;;;;;;7.12;5.75;;;;;;;12.92;70.08;97191.34;1459089;98;25861;-75
2022/09/24 09:16:34;;;;;;;8.55;5.45;;;;;;;13.02;69.74;97194.84;1458946;98;26893;-75
2022/09/24 09:19:07;;;;;;;6.92;4.75;;;;;;;13.14;69.28;97193.84;1459055;98;25863;-75
2022/09/24 09:21:42;;;;;;;6.15;5.20;;;;;;;13.22;69.27;97194.85;1478043;96;25920;-75
2022/09/24 09:24:42;;;;;;;5.55;4.87;;;;;;;13.32;68.90;97191.56;1437052;99;25928;-75
2022/09/24 09:27:13;;;;;;;6.72;4.97;;;;;;;13.37;68.35;97193.05;1445656;94;26471;-75
2022/09/24 09:29:50;;;;;;;5.83;5.17;;;;;;;13.37;68.10;97188.16;1520368;94;27625;-75
2022/09/24 09:32:28;;;;;;;7.60;5.78;;;;;;;13.38;68.07;97184.39;1473050;96;25845;-75
2022/09/24 09:35:08;;;;;;;8.73;5.20;;;;;;;13.39;67.85;97187.40;1447943;98;25880;-76
2022/09/24 09:37:51;;;;;;;8.00;4.93;;;;;;;13.40;68.05;97184.98;1451282;98;26232;-75
2022/09/24 09:40:40;;;;;;;6.03;4.45;;;;;;;13.45;67.78;97186.45;1389984;103;25928;-75
2022/09/24 09:43:12;;;;;;;5.72;4.42;;;;;;;13.48;67.45;97179.20;1348889;106;26036;-74
2022/09/24 09:46:06;;;;;;;6.22;4.83;;;;;;;13.52;66.79;97173.09;1342643;105;25859;-75
2022/09/24 09:48:47;;;;;;;8.13;5.58;;;;;;;13.57;66.44;97173.72;1341128;105;25919;-76
2022/09/24 09:51:21;;;;;;;9.83;5.58;;;;;;;13.63;66.01;97177.69;1292755;110;25948;-75
2022/09/24 09:54:00;;;;;;;6.50;5.10;;;;;;;13.73;65.90;97176.26;1300031;110;26002;-76
2022/09/24 09:56:34;;;;;;;6.87;5.58;;;;;;;13.82;65.51;97170.77;1288016;110;27481;-75
2022/09/24 09:59:18;;;;;;;5.58;4.95;;;;;;;13.90;65.07;97155.47;1287854;110;25948;-76
2022/09/24 10:02:48;;;;;;;5.50;4.85;;;;;;;13.93;64.58;97155.82;1276300;111;26747;-75
2022/09/24 10:05:21;;;;;;;6.92;5.33;;;;;;;13.98;64.26;97150.52;1272606;111;25617;-74
2022/09/24 10:07:47;;;;;;;8.93;5.83;;;;;;;14.10;64.46;97148.31;1288152;111;25947;-74
2022/09/24 10:10:24;;;;;;;6.05;4.97;;;;;;;14.23;64.01;97152.11;1288016;110;28491;-74
2022/09/24 10:13:09;;;;;;;9.70;5.92;;;;;;;14.34;63.56;97151.25;1293087;109;26117;-75
2022/09/24 10:15:55;;;;;;;7.12;5.40;;;;;;;14.46;63.42;97147.16;1306722;108;25901;-74
2022/09/24 10:18:39;;;;;;;5.85;4.95;;;;;;;14.64;63.08;97149.14;1364775;103;26108;-75
2022/09/24 10:21:26;;;;;;;6.45;5.03;;;;;;;14.81;62.69;97142.39;1341658;105;25654;-75
2022/09/24 10:23:58;;;;;;;6.87;4.40;;;;;;;15.00;62.80;97142.98;1337411;106;27520;-75
2022/09/24 10:26:41;;;;;;;5.62;4.97;;;;;;;15.14;62.17;97142.95;1337598;107;25989;-75
2022/09/24 10:32:21;;;;;;;5.95;4.78;;;;;;;15.41;61.31;97121.36;1357391;105;25822;-75
2022/09/24 10:35:04;;;;;;;7.83;5.35;;;;;;;15.48;60.79;97129.63;1392778;101;25893;-75
2022/09/24 10:37:31;;;;;;;6.70;4.78;;;;;;;15.46;60.61;97123.61;1397551;101;27468;-77
2022/09/24 10:40:11;;;;;;;5.45;4.65;;;;;;;15.49;60.25;97120.40;1454996;96;25878;-76
2022/09/24 10:42:38;;;;;;;6.10;4.45;;;;;;;15.50;59.94;97124.77;1493878;94;25923;-76
2022/09/24 10:45:12;;;;;;;5.78;4.67;;;;;;;15.47;59.55;97127.98;1480232;96;26940;-75
2022/09/24 10:48:32;;;;;;;5.37;4.30;;;;;;;15.44;59.41;97121.70;1486624;94;25961;-74
2022/09/24 10:51:25;;;;;;;5.95;4.92;;;;;;;15.42;59.26;97119.77;1522076;94;27496;-76
2022/09/24 10:54:00;;;;;;;6.55;4.90;;;;;;;15.35;59.72;97108.75;1609584;88;25785;-76
2022/09/24 10:56:48;;;;;;;6.70;4.40;;;;;;;15.34;59.58;97107.92;1598677;89;25851;-76
2022/09/24 10:59:28;;;;;;;6.33;4.37;;;;;;;15.35;59.51;97109.58;1602001;87;25730;-75
2022/09/24 11:02:41;;;;;;;5.53;4.78;;;;;;;15.39;59.60;97113.45;1608075;87;25731;-77
2022/09/24 11:05:15;;;;;;;6.75;4.72;;;;;;;15.44;59.34;97112.18;1608328;87;27406;-76
2022/09/24 11:08:14;;;;;;;4.80;4.15;;;;;;;15.48;58.66;97111.95;1579052;89;25943;-76
2022/09/24 11:11:08;;;;;;;6.58;3.83;;;;;;;15.57;58.63;97107.50;1579244;89;25803;-73
2022/09/24 11:14:12;;;;;;;6.30;4.60;;;;;;;15.66;58.33;97097.29;1485433;96;25890;-75
2022/09/24 11:17:17;;;;;;;5.28;4.65;;;;;;;15.69;58.30;97098.16;1514862;92;25756;-76
2022/09/24 11:20:10;;;;;;;6.12;3.77;;;;;;;15.83;58.40;97089.88;1515556;93;28274;-75
2022/09/24 11:22:49;;;;;;;;;;;;;;;16.02;58.01;97090.41;1533497;92;26593;-74
2022/09/24 11:25:54;;;;;;;4.92;4.12;;;;;;;16.15;56.17;97088.67;1543751;91;25836;-75
2022/09/24 11:28:32;;;;;;;4.12;3.62;;;;;;;16.24;57.63;97084.95;1512791;93;25891;-76
2022/09/24 11:31:25;;;;;;;4.55;4.00;;;;;;;16.38;57.35;97086.20;1540535;91;25867;-75
2022/09/24 11:34:12;;;;;;;4.62;3.67;;;;;;;16.42;57.07;97076.42;1554106;91;27500;-75
2022/09/24 11:37:08;;;;;;;5.75;3.47;;;;;;;16.49;57.28;97070.78;1491850;95;25822;-75
2022/09/24 11:40:09;;;;;;;6.22;4.20;;;;;;;16.52;56.37;97063.47;1439171;98;25883;-74
2022/09/24 11:42:51;;;;;;;4.47;3.42;;;;;;;16.46;56.54;97068.56;1459135;96;26010;-75
2022/09/24 11:45:50;;;;;;;4.25;3.80;;;;;;;16.38;56.22;97067.14;1455970;97;26084;-75
2022/09/24 11:48:42;;;;;;;4.85;3.62;;;;;;;16.41;56.55;97067.17;1422417;99;28331;-75
2022/09/24 11:51:32;;;;;;;3.87;3.50;;;;;;;16.56;56.24;97060.48;1462411;93;25993;-76
2022/09/24 11:54:16;;;;;;;4.45;3.62;;;;;;;16.73;55.89;97061.24;1487580;96;25353;-75
2022/09/24 11:56:48;;;;;;;5.15;3.30;;;;;;;16.85;55.48;97053.72;1489234;95;26886;-75
2022/09/24 11:59:53;;;;;;;3.95;3.27;;;;;;;16.83;55.39;97059.97;1511662;93;25803;-75
2022/09/24 12:02:31;;;;;;;7.20;4.20;;;;;;;16.78;55.07;97051.77;1512050;94;27393;-75
2022/09/24 12:05:21;;;;;;;5.75;3.75;;;;;;;16.82;55.31;97054.23;1501826;94;25355;-76
2022/09/24 12:08:00;;;;;;;3.92;3.58;;;;;;;16.92;55.18;97059.77;1520324;94;25943;-75
2022/09/24 12:10:53;;;;;;;3.65;3.20;;;;;;;17.04;54.71;97051.95;1499154;94;25836;-75
2022/09/24 12:13:45;;;;;;;4.00;3.55;;;;;;;17.02;54.13;97055.50;1505929;93;25875;-75